sensor_id;sensor_type;location;lat;lon;timestamp;P1;durP1;ratioP1;P2;durP2;ratioP2
16998;SDS011;10211;49.476;11.010;2023-07-08T00:00:08;6.00;;;3.50;;
16998;SDS011;10211;49.476;11.010;2023-07-08T00:02:39;10.17;;;4.03;;
16998;SDS011;10211;49.476;11.010;2023-07-08T00:05:07;5.33;;;3.63;;
16998;SDS011;10211;49.476;11.010;2023-07-08T00:07:34;5.83;;;3.30;;
16998;SDS011;10211;49.476;11.010;2023-07-08T00:10:01;6.80;;;3.80;;
16998;SDS011;10211;49.476;11.010;2023-07-08T00:12:27;6.47;;;3.63;;
16998;SDS011;10211;49.476;11.010;2023-07-08T00:14:56;7.77;;;3.97;;
16998;SDS011;10211;49.476;11.010;2023-07-08T00:17:23;5.07;;;4.10;;
16998;SDS011;10211;49.476;11.010;2023-07-08T00:19:51;4.30;;;3.47;;
16998;SDS011;10211;49.476;11.010;2023-07-08T00:22:19;4.90;;;3.23;;
16998;SDS011;10211;49.476;11.010;2023-07-08T00:24:50;5.60;;;3.77;;
16998;SDS011;10211;49.476;11.010;2023-07-08T00:27:17;4.40;;;3.53;;
16998;SDS011;10211;49.476;11.010;2023-07-08T00:29:43;5.73;;;3.27;;
16998;SDS011;10211;49.476;11.010;2023-07-08T00:32:10;4.27;;;3.10;;
16998;SDS011;10211;49.476;11.010;2023-07-08T00:34:38;6.57;;;3.60;;
16998;SDS011;10211;49.476;11.010;2023-07-08T00:37:08;6.60;;;3.43;;
16998;SDS011;10211;49.476;11.010;2023-07-08T00:39:37;5.20;;;3.33;;
16998;SDS011;10211;49.476;11.010;2023-07-08T00:42:06;4.83;;;4.33;;
16998;SDS011;10211;49.476;11.010;2023-07-08T00:44:41;4.43;;;3.10;;
16998;SDS011;10211;49.476;11.010;2023-07-08T00:47:09;6.17;;;3.60;;
16998;SDS011;10211;49.476;11.010;2023-07-08T00:49:39;4.60;;;3.40;;
16998;SDS011;10211;49.476;11.010;2023-07-08T00:52:23;4.50;;;3.33;;
16998;SDS011;10211;49.476;11.010;2023-07-08T00:54:52;5.90;;;3.30;;
16998;SDS011;10211;49.476;11.010;2023-07-08T00:57:20;6.10;;;3.57;;
16998;SDS011;10211;49.476;11.010;2023-07-08T00:59:49;3.20;;;2.80;;
16998;SDS011;10211;49.476;11.010;2023-07-08T01:02:20;6.13;;;3.17;;
16998;SDS011;10211;49.476;11.010;2023-07-08T01:04:50;4.07;;;3.17;;
16998;SDS011;10211;49.476;11.010;2023-07-08T01:07:19;3.87;;;3.30;;
16998;SDS011;10211;49.476;11.010;2023-07-08T01:09:55;4.70;;;3.50;;
16998;SDS011;10211;49.476;11.010;2023-07-08T01:12:25;5.57;;;3.67;;
16998;SDS011;10211;49.476;11.010;2023-07-08T01:14:55;6.87;;;3.33;;
16998;SDS011;10211;49.476;11.010;2023-07-08T01:17:23;8.33;;;3.30;;
16998;SDS011;10211;49.476;11.010;2023-07-08T01:19:50;5.13;;;3.40;;
16998;SDS011;10211;49.476;11.010;2023-07-08T01:22:21;7.00;;;3.70;;
16998;SDS011;10211;49.476;11.010;2023-07-08T01:24:48;4.70;;;3.57;;
16998;SDS011;10211;49.476;11.010;2023-07-08T01:27:16;3.70;;;3.30;;
16998;SDS011;10211;49.476;11.010;2023-07-08T01:29:45;7.07;;;3.27;;
16998;SDS011;10211;49.476;11.010;2023-07-08T01:32:12;4.27;;;3.40;;
16998;SDS011;10211;49.476;11.010;2023-07-08T01:34:43;5.17;;;3.47;;
16998;SDS011;10211;49.476;11.010;2023-07-08T01:37:18;5.87;;;3.67;;
16998;SDS011;10211;49.476;11.010;2023-07-08T01:39:46;5.23;;;3.50;;
16998;SDS011;10211;49.476;11.010;2023-07-08T01:42:13;5.07;;;3.57;;
16998;SDS011;10211;49.476;11.010;2023-07-08T01:44:40;5.57;;;3.23;;
16998;SDS011;10211;49.476;11.010;2023-07-08T01:47:08;6.73;;;3.23;;
16998;SDS011;10211;49.476;11.010;2023-07-08T01:49:37;3.43;;;3.10;;
16998;SDS011;10211;49.476;11.010;2023-07-08T01:52:06;4.67;;;3.50;;
16998;SDS011;10211;49.476;11.010;2023-07-08T01:54:34;6.17;;;3.30;;
16998;SDS011;10211;49.476;11.010;2023-07-08T01:57:03;4.47;;;3.47;;
16998;SDS011;10211;49.476;11.010;2023-07-08T01:59:30;5.00;;;3.47;;
16998;SDS011;10211;49.476;11.010;2023-07-08T02:01:56;6.33;;;3.57;;
16998;SDS011;10211;49.476;11.010;2023-07-08T02:04:24;4.47;;;2.87;;
16998;SDS011;10211;49.476;11.010;2023-07-08T02:06:55;3.50;;;3.07;;
16998;SDS011;10211;49.476;11.010;2023-07-08T02:09:23;5.43;;;3.67;;
16998;SDS011;10211;49.476;11.010;2023-07-08T02:11:51;5.10;;;3.60;;
16998;SDS011;10211;49.476;11.010;2023-07-08T02:14:19;4.90;;;3.27;;
16998;SDS011;10211;49.476;11.010;2023-07-08T02:16:45;4.17;;;2.93;;
16998;SDS011;10211;49.476;11.010;2023-07-08T02:19:12;5.67;;;3.13;;
16998;SDS011;10211;49.476;11.010;2023-07-08T02:21:39;6.90;;;3.60;;
16998;SDS011;10211;49.476;11.010;2023-07-08T02:24:06;7.07;;;3.87;;
16998;SDS011;10211;49.476;11.010;2023-07-08T02:26:33;6.47;;;3.10;;
16998;SDS011;10211;49.476;11.010;2023-07-08T02:29:00;4.57;;;3.07;;
16998;SDS011;10211;49.476;11.010;2023-07-08T02:31:29;6.27;;;3.27;;
16998;SDS011;10211;49.476;11.010;2023-07-08T02:33:55;5.53;;;3.13;;
16998;SDS011;10211;49.476;11.010;2023-07-08T02:36:22;9.27;;;3.17;;
16998;SDS011;10211;49.476;11.010;2023-07-08T02:38:49;5.53;;;3.37;;
16998;SDS011;10211;49.476;11.010;2023-07-08T02:41:16;5.00;;;3.53;;
16998;SDS011;10211;49.476;11.010;2023-07-08T02:43:43;4.80;;;3.33;;
16998;SDS011;10211;49.476;11.010;2023-07-08T02:46:10;7.50;;;3.23;;
16998;SDS011;10211;49.476;11.010;2023-07-08T02:48:38;4.73;;;3.30;;
16998;SDS011;10211;49.476;11.010;2023-07-08T02:51:05;8.47;;;3.40;;
16998;SDS011;10211;49.476;11.010;2023-07-08T02:53:33;5.43;;;3.23;;
16998;SDS011;10211;49.476;11.010;2023-07-08T02:56:00;3.40;;;2.80;;
16998;SDS011;10211;49.476;11.010;2023-07-08T02:58:27;4.20;;;3.03;;
16998;SDS011;10211;49.476;11.010;2023-07-08T03:00:54;8.40;;;3.50;;
16998;SDS011;10211;49.476;11.010;2023-07-08T03:03:24;4.40;;;3.13;;
16998;SDS011;10211;49.476;11.010;2023-07-08T03:05:55;5.07;;;3.50;;
16998;SDS011;10211;49.476;11.010;2023-07-08T03:08:23;6.97;;;4.10;;
16998;SDS011;10211;49.476;11.010;2023-07-08T03:10:54;4.80;;;3.37;;
16998;SDS011;10211;49.476;11.010;2023-07-08T03:13:22;6.73;;;3.90;;
16998;SDS011;10211;49.476;11.010;2023-07-08T03:15:49;4.13;;;3.50;;
16998;SDS011;10211;49.476;11.010;2023-07-08T03:18:16;6.13;;;3.53;;
16998;SDS011;10211;49.476;11.010;2023-07-08T03:20:42;8.90;;;4.07;;
16998;SDS011;10211;49.476;11.010;2023-07-08T03:23:11;5.00;;;3.47;;
16998;SDS011;10211;49.476;11.010;2023-07-08T03:25:37;8.53;;;3.90;;
16998;SDS011;10211;49.476;11.010;2023-07-08T03:28:04;5.33;;;3.80;;
16998;SDS011;10211;49.476;11.010;2023-07-08T03:30:32;3.93;;;3.20;;
16998;SDS011;10211;49.476;11.010;2023-07-08T03:33:00;8.00;;;3.73;;
16998;SDS011;10211;49.476;11.010;2023-07-08T03:35:27;5.13;;;3.67;;
16998;SDS011;10211;49.476;11.010;2023-07-08T03:37:54;6.27;;;2.77;;
16998;SDS011;10211;49.476;11.010;2023-07-08T03:40:22;5.87;;;4.60;;
16998;SDS011;10211;49.476;11.010;2023-07-08T03:42:49;6.40;;;3.63;;
16998;SDS011;10211;49.476;11.010;2023-07-08T03:45:15;8.27;;;4.30;;
16998;SDS011;10211;49.476;11.010;2023-07-08T03:47:42;7.13;;;3.53;;
16998;SDS011;10211;49.476;11.010;2023-07-08T03:50:11;7.17;;;3.70;;
16998;SDS011;10211;49.476;11.010;2023-07-08T03:52:44;4.70;;;3.43;;
16998;SDS011;10211;49.476;11.010;2023-07-08T03:55:11;4.97;;;3.80;;
16998;SDS011;10211;49.476;11.010;2023-07-08T03:57:39;4.57;;;3.30;;
16998;SDS011;10211;49.476;11.010;2023-07-08T04:00:07;6.30;;;4.00;;
16998;SDS011;10211;49.476;11.010;2023-07-08T04:02:36;4.30;;;3.90;;
16998;SDS011;10211;49.476;11.010;2023-07-08T04:05:02;6.40;;;3.70;;
16998;SDS011;10211;49.476;11.010;2023-07-08T04:07:29;8.33;;;3.87;;
16998;SDS011;10211;49.476;11.010;2023-07-08T04:09:56;8.97;;;4.50;;
16998;SDS011;10211;49.476;11.010;2023-07-08T04:12:22;5.93;;;4.40;;
16998;SDS011;10211;49.476;11.010;2023-07-08T04:14:50;5.50;;;3.43;;
16998;SDS011;10211;49.476;11.010;2023-07-08T04:17:17;7.57;;;4.00;;
16998;SDS011;10211;49.476;11.010;2023-07-08T04:19:44;5.53;;;4.03;;
16998;SDS011;10211;49.476;11.010;2023-07-08T04:22:11;9.30;;;4.40;;
16998;SDS011;10211;49.476;11.010;2023-07-08T04:24:38;6.43;;;4.00;;
16998;SDS011;10211;49.476;11.010;2023-07-08T04:27:05;6.73;;;4.00;;
16998;SDS011;10211;49.476;11.010;2023-07-08T04:29:31;4.57;;;3.47;;
16998;SDS011;10211;49.476;11.010;2023-07-08T04:32:01;5.30;;;3.70;;
16998;SDS011;10211;49.476;11.010;2023-07-08T04:34:28;5.73;;;3.77;;
16998;SDS011;10211;49.476;11.010;2023-07-08T04:36:55;5.50;;;4.13;;
16998;SDS011;10211;49.476;11.010;2023-07-08T04:39:21;5.07;;;3.57;;
16998;SDS011;10211;49.476;11.010;2023-07-08T04:41:48;7.97;;;3.90;;
16998;SDS011;10211;49.476;11.010;2023-07-08T04:44:15;4.47;;;3.60;;
16998;SDS011;10211;49.476;11.010;2023-07-08T04:46:44;4.43;;;3.60;;
16998;SDS011;10211;49.476;11.010;2023-07-08T04:49:14;5.10;;;3.57;;
16998;SDS011;10211;49.476;11.010;2023-07-08T04:51:40;5.23;;;3.40;;
16998;SDS011;10211;49.476;11.010;2023-07-08T04:54:07;7.70;;;4.10;;
16998;SDS011;10211;49.476;11.010;2023-07-08T04:56:36;7.23;;;3.43;;
16998;SDS011;10211;49.476;11.010;2023-07-08T04:59:04;6.67;;;3.83;;
16998;SDS011;10211;49.476;11.010;2023-07-08T05:01:31;4.43;;;4.00;;
16998;SDS011;10211;49.476;11.010;2023-07-08T05:03:58;5.43;;;4.50;;
16998;SDS011;10211;49.476;11.010;2023-07-08T05:06:27;9.63;;;4.40;;
16998;SDS011;10211;49.476;11.010;2023-07-08T05:08:53;5.87;;;5.10;;
16998;SDS011;10211;49.476;11.010;2023-07-08T05:11:20;6.77;;;4.30;;
16998;SDS011;10211;49.476;11.010;2023-07-08T05:13:47;5.70;;;4.60;;
16998;SDS011;10211;49.476;11.010;2023-07-08T05:16:14;9.87;;;4.87;;
16998;SDS011;10211;49.476;11.010;2023-07-08T05:18:41;5.47;;;3.70;;
16998;SDS011;10211;49.476;11.010;2023-07-08T05:21:08;6.23;;;4.20;;
16998;SDS011;10211;49.476;11.010;2023-07-08T05:23:36;13.10;;;4.40;;
16998;SDS011;10211;49.476;11.010;2023-07-08T05:26:03;6.73;;;4.77;;
16998;SDS011;10211;49.476;11.010;2023-07-08T05:28:32;5.73;;;4.60;;
16998;SDS011;10211;49.476;11.010;2023-07-08T05:30:59;5.90;;;4.50;;
16998;SDS011;10211;49.476;11.010;2023-07-08T05:33:27;5.53;;;4.20;;
16998;SDS011;10211;49.476;11.010;2023-07-08T05:35:55;5.03;;;4.13;;
16998;SDS011;10211;49.476;11.010;2023-07-08T05:38:23;10.83;;;4.30;;
16998;SDS011;10211;49.476;11.010;2023-07-08T05:40:53;4.00;;;3.67;;
16998;SDS011;10211;49.476;11.010;2023-07-08T05:43:21;5.60;;;4.13;;
16998;SDS011;10211;49.476;11.010;2023-07-08T05:45:48;4.27;;;3.50;;
16998;SDS011;10211;49.476;11.010;2023-07-08T05:48:15;5.67;;;3.53;;
16998;SDS011;10211;49.476;11.010;2023-07-08T05:50:42;4.20;;;3.03;;
16998;SDS011;10211;49.476;11.010;2023-07-08T05:53:09;5.50;;;3.77;;
16998;SDS011;10211;49.476;11.010;2023-07-08T05:55:37;4.57;;;4.07;;
16998;SDS011;10211;49.476;11.010;2023-07-08T05:58:08;4.40;;;3.97;;
16998;SDS011;10211;49.476;11.010;2023-07-08T06:00:35;5.47;;;4.00;;
16998;SDS011;10211;49.476;11.010;2023-07-08T06:03:02;5.03;;;3.73;;
16998;SDS011;10211;49.476;11.010;2023-07-08T06:05:28;4.40;;;3.93;;
16998;SDS011;10211;49.476;11.010;2023-07-08T06:07:55;6.73;;;3.77;;
16998;SDS011;10211;49.476;11.010;2023-07-08T06:10:22;4.93;;;3.80;;
16998;SDS011;10211;49.476;11.010;2023-07-08T06:12:48;5.17;;;3.87;;
16998;SDS011;10211;49.476;11.010;2023-07-08T06:15:17;3.73;;;3.37;;
16998;SDS011;10211;49.476;11.010;2023-07-08T06:17:44;5.20;;;3.67;;
16998;SDS011;10211;49.476;11.010;2023-07-08T06:20:11;5.03;;;3.50;;
16998;SDS011;10211;49.476;11.010;2023-07-08T06:22:37;4.82;;;3.38;;
16998;SDS011;10211;49.476;11.010;2023-07-08T06:25:04;6.10;;;4.35;;
16998;SDS011;10211;49.476;11.010;2023-07-08T06:27:31;6.55;;;3.92;;
16998;SDS011;10211;49.476;11.010;2023-07-08T06:29:58;7.35;;;4.15;;
16998;SDS011;10211;49.476;11.010;2023-07-08T06:32:26;4.38;;;3.85;;
16998;SDS011;10211;49.476;11.010;2023-07-08T06:34:53;4.07;;;3.67;;
16998;SDS011;10211;49.476;11.010;2023-07-08T06:37:19;6.30;;;3.70;;
16998;SDS011;10211;49.476;11.010;2023-07-08T06:39:46;5.93;;;3.95;;
16998;SDS011;10211;49.476;11.010;2023-07-08T06:42:12;5.10;;;3.72;;
16998;SDS011;10211;49.476;11.010;2023-07-08T06:44:39;6.43;;;3.92;;
16998;SDS011;10211;49.476;11.010;2023-07-08T06:47:10;4.75;;;3.97;;
16998;SDS011;10211;49.476;11.010;2023-07-08T06:49:38;5.30;;;3.95;;
16998;SDS011;10211;49.476;11.010;2023-07-08T06:52:05;4.82;;;3.80;;
16998;SDS011;10211;49.476;11.010;2023-07-08T06:54:32;5.60;;;3.75;;
16998;SDS011;10211;49.476;11.010;2023-07-08T06:56:59;9.48;;;3.72;;
16998;SDS011;10211;49.476;11.010;2023-07-08T06:59:26;5.18;;;3.63;;
16998;SDS011;10211;49.476;11.010;2023-07-08T07:01:53;4.00;;;3.60;;
16998;SDS011;10211;49.476;11.010;2023-07-08T07:04:20;5.53;;;4.03;;
16998;SDS011;10211;49.476;11.010;2023-07-08T07:06:48;4.18;;;3.47;;
16998;SDS011;10211;49.476;11.010;2023-07-08T07:09:14;3.47;;;2.97;;
16998;SDS011;10211;49.476;11.010;2023-07-08T07:11:41;3.75;;;3.40;;
16998;SDS011;10211;49.476;11.010;2023-07-08T07:14:08;3.40;;;3.10;;
16998;SDS011;10211;49.476;11.010;2023-07-08T07:16:34;3.67;;;3.17;;
16998;SDS011;10211;49.476;11.010;2023-07-08T07:19:01;4.55;;;3.40;;
16998;SDS011;10211;49.476;11.010;2023-07-08T07:21:28;4.07;;;3.30;;
16998;SDS011;10211;49.476;11.010;2023-07-08T07:23:56;4.40;;;3.40;;
16998;SDS011;10211;49.476;11.010;2023-07-08T07:26:23;4.03;;;3.08;;
16998;SDS011;10211;49.476;11.010;2023-07-08T07:28:49;5.18;;;3.80;;
16998;SDS011;10211;49.476;11.010;2023-07-08T07:31:16;3.63;;;3.13;;
16998;SDS011;10211;49.476;11.010;2023-07-08T07:33:43;4.70;;;3.47;;
16998;SDS011;10211;49.476;11.010;2023-07-08T07:36:09;3.55;;;3.15;;
16998;SDS011;10211;49.476;11.010;2023-07-08T07:38:36;4.50;;;3.13;;
16998;SDS011;10211;49.476;11.010;2023-07-08T07:41:04;3.78;;;3.28;;
16998;SDS011;10211;49.476;11.010;2023-07-08T07:43:32;5.93;;;3.22;;
16998;SDS011;10211;49.476;11.010;2023-07-08T07:45:59;3.22;;;2.75;;
16998;SDS011;10211;49.476;11.010;2023-07-08T07:48:25;3.97;;;3.10;;
16998;SDS011;10211;49.476;11.010;2023-07-08T07:50:52;4.13;;;3.33;;
16998;SDS011;10211;49.476;11.010;2023-07-08T07:53:19;3.97;;;3.35;;
16998;SDS011;10211;49.476;11.010;2023-07-08T07:55:46;3.35;;;3.00;;
16998;SDS011;10211;49.476;11.010;2023-07-08T07:58:14;3.75;;;2.95;;
16998;SDS011;10211;49.476;11.010;2023-07-08T08:00:40;3.92;;;2.97;;
16998;SDS011;10211;49.476;11.010;2023-07-08T08:03:07;4.15;;;3.22;;
16998;SDS011;10211;49.476;11.010;2023-07-08T08:05:34;3.78;;;3.08;;
16998;SDS011;10211;49.476;11.010;2023-07-08T08:08:00;4.07;;;3.40;;
16998;SDS011;10211;49.476;11.010;2023-07-08T08:10:28;3.70;;;3.30;;
16998;SDS011;10211;49.476;11.010;2023-07-08T08:12:55;3.47;;;3.17;;
16998;SDS011;10211;49.476;11.010;2023-07-08T08:15:23;3.15;;;2.80;;
16998;SDS011;10211;49.476;11.010;2023-07-08T08:17:50;5.78;;;3.20;;
16998;SDS011;10211;49.476;11.010;2023-07-08T08:20:17;3.72;;;3.22;;
16998;SDS011;10211;49.476;11.010;2023-07-08T08:22:45;5.30;;;3.22;;
16998;SDS011;10211;49.476;11.010;2023-07-08T08:25:12;6.75;;;3.55;;
16998;SDS011;10211;49.476;11.010;2023-07-08T08:27:38;4.35;;;2.92;;
16998;SDS011;10211;49.476;11.010;2023-07-08T08:30:05;4.80;;;3.10;;
16998;SDS011;10211;49.476;11.010;2023-07-08T08:32:34;3.70;;;2.80;;
16998;SDS011;10211;49.476;11.010;2023-07-08T08:35:01;3.58;;;2.88;;
16998;SDS011;10211;49.476;11.010;2023-07-08T08:37:28;3.53;;;3.00;;
16998;SDS011;10211;49.476;11.010;2023-07-08T08:39:54;5.70;;;3.33;;
16998;SDS011;10211;49.476;11.010;2023-07-08T08:42:23;3.05;;;2.75;;
16998;SDS011;10211;49.476;11.010;2023-07-08T08:44:52;4.30;;;3.13;;
16998;SDS011;10211;49.476;11.010;2023-07-08T08:47:21;4.68;;;3.17;;
16998;SDS011;10211;49.476;11.010;2023-07-08T08:50:00;3.42;;;2.88;;
16998;SDS011;10211;49.476;11.010;2023-07-08T08:52:30;5.00;;;2.78;;
16998;SDS011;10211;49.476;11.010;2023-07-08T08:54:56;4.10;;;2.65;;
16998;SDS011;10211;49.476;11.010;2023-07-08T08:57:27;4.80;;;2.78;;
16998;SDS011;10211;49.476;11.010;2023-07-08T09:00:04;3.67;;;3.30;;
16998;SDS011;10211;49.476;11.010;2023-07-08T09:02:34;3.38;;;2.70;;
16998;SDS011;10211;49.476;11.010;2023-07-08T09:05:07;3.80;;;2.78;;
16998;SDS011;10211;49.476;11.010;2023-07-08T09:07:39;4.38;;;3.28;;
16998;SDS011;10211;49.476;11.010;2023-07-08T09:10:10;4.03;;;3.10;;
16998;SDS011;10211;49.476;11.010;2023-07-08T09:12:45;3.25;;;2.95;;
16998;SDS011;10211;49.476;11.010;2023-07-08T09:15:13;6.68;;;2.97;;
16998;SDS011;10211;49.476;11.010;2023-07-08T09:17:41;3.72;;;2.70;;
16998;SDS011;10211;49.476;11.010;2023-07-08T09:20:15;3.47;;;2.45;;
16998;SDS011;10211;49.476;11.010;2023-07-08T09:22:48;3.20;;;2.90;;
16998;SDS011;10211;49.476;11.010;2023-07-08T09:25:22;5.07;;;2.88;;
16998;SDS011;10211;49.476;11.010;2023-07-08T09:27:52;2.67;;;2.47;;
16998;SDS011;10211;49.476;11.010;2023-07-08T09:30:20;3.35;;;2.70;;
16998;SDS011;10211;49.476;11.010;2023-07-08T09:32:48;3.95;;;2.95;;
16998;SDS011;10211;49.476;11.010;2023-07-08T09:35:21;3.63;;;2.72;;
16998;SDS011;10211;49.476;11.010;2023-07-08T09:37:50;3.00;;;2.45;;
16998;SDS011;10211;49.476;11.010;2023-07-08T09:40:17;2.70;;;2.50;;
16998;SDS011;10211;49.476;11.010;2023-07-08T09:42:48;4.25;;;2.80;;
16998;SDS011;10211;49.476;11.010;2023-07-08T09:45:18;5.50;;;2.55;;
16998;SDS011;10211;49.476;11.010;2023-07-08T09:47:47;9.20;;;3.28;;
16998;SDS011;10211;49.476;11.010;2023-07-08T09:50:18;3.67;;;2.90;;
16998;SDS011;10211;49.476;11.010;2023-07-08T09:52:48;3.90;;;2.60;;
16998;SDS011;10211;49.476;11.010;2023-07-08T09:55:16;2.90;;;2.67;;
16998;SDS011;10211;49.476;11.010;2023-07-08T09:57:43;5.00;;;3.00;;
16998;SDS011;10211;49.476;11.010;2023-07-08T10:00:13;5.10;;;3.15;;
16998;SDS011;10211;49.476;11.010;2023-07-08T10:02:43;2.90;;;2.70;;
16998;SDS011;10211;49.476;11.010;2023-07-08T10:05:16;3.35;;;2.83;;
16998;SDS011;10211;49.476;11.010;2023-07-08T10:07:46;3.00;;;2.72;;
16998;SDS011;10211;49.476;11.010;2023-07-08T10:10:15;3.13;;;2.92;;
16998;SDS011;10211;49.476;11.010;2023-07-08T10:12:48;2.95;;;2.75;;
16998;SDS011;10211;49.476;11.010;2023-07-08T10:15:22;2.67;;;2.47;;
16998;SDS011;10211;49.476;11.010;2023-07-08T10:17:53;3.42;;;3.17;;
16998;SDS011;10211;49.476;11.010;2023-07-08T10:20:20;2.72;;;2.53;;
16998;SDS011;10211;49.476;11.010;2023-07-08T10:22:55;3.00;;;2.70;;
16998;SDS011;10211;49.476;11.010;2023-07-08T10:25:32;2.85;;;2.65;;
16998;SDS011;10211;49.476;11.010;2023-07-08T10:28:12;4.95;;;3.10;;
16998;SDS011;10211;49.476;11.010;2023-07-08T10:30:55;3.10;;;2.90;;
16998;SDS011;10211;49.476;11.010;2023-07-08T10:33:35;2.92;;;2.72;;
16998;SDS011;10211;49.476;11.010;2023-07-08T10:36:16;3.30;;;3.00;;
16998;SDS011;10211;49.476;11.010;2023-07-08T10:38:55;4.03;;;3.72;;
16998;SDS011;10211;49.476;11.010;2023-07-08T10:41:45;3.03;;;2.85;;
16998;SDS011;10211;49.476;11.010;2023-07-08T10:44:19;4.28;;;3.10;;
16998;SDS011;10211;49.476;11.010;2023-07-08T10:46:56;3.58;;;3.30;;
16998;SDS011;10211;49.476;11.010;2023-07-08T10:49:47;3.08;;;2.88;;
16998;SDS011;10211;49.476;11.010;2023-07-08T10:52:27;3.20;;;3.00;;
16998;SDS011;10211;49.476;11.010;2023-07-08T10:55:14;4.03;;;3.47;;
16998;SDS011;10211;49.476;11.010;2023-07-08T10:57:50;3.53;;;3.22;;
16998;SDS011;10211;49.476;11.010;2023-07-08T11:00:34;3.33;;;3.00;;
16998;SDS011;10211;49.476;11.010;2023-07-08T11:03:15;3.55;;;3.25;;
16998;SDS011;10211;49.476;11.010;2023-07-08T11:06:00;3.83;;;3.47;;
16998;SDS011;10211;49.476;11.010;2023-07-08T11:08:30;3.38;;;3.17;;
16998;SDS011;10211;49.476;11.010;2023-07-08T11:11:05;3.35;;;3.08;;
16998;SDS011;10211;49.476;11.010;2023-07-08T11:13:39;3.55;;;3.25;;
16998;SDS011;10211;49.476;11.010;2023-07-08T11:16:12;3.50;;;3.30;;
16998;SDS011;10211;49.476;11.010;2023-07-08T11:18:44;3.60;;;3.35;;
16998;SDS011;10211;49.476;11.010;2023-07-08T11:21:16;3.40;;;3.20;;
16998;SDS011;10211;49.476;11.010;2023-07-08T11:23:48;3.70;;;3.42;;
16998;SDS011;10211;49.476;11.010;2023-07-08T11:26:20;6.68;;;3.60;;
16998;SDS011;10211;49.476;11.010;2023-07-08T11:28:50;4.07;;;3.25;;
16998;SDS011;10211;49.476;11.010;2023-07-08T11:31:19;3.55;;;3.33;;
16998;SDS011;10211;49.476;11.010;2023-07-08T11:33:48;3.65;;;3.35;;
16998;SDS011;10211;49.476;11.010;2023-07-08T11:36:16;3.80;;;3.50;;
16998;SDS011;10211;49.476;11.010;2023-07-08T11:38:47;3.40;;;3.20;;
16998;SDS011;10211;49.476;11.010;2023-07-08T11:41:15;4.10;;;3.80;;
16998;SDS011;10211;49.476;11.010;2023-07-08T11:43:47;4.45;;;3.92;;
16998;SDS011;10211;49.476;11.010;2023-07-08T11:46:18;4.03;;;3.63;;
16998;SDS011;10211;49.476;11.010;2023-07-08T11:48:46;4.40;;;3.38;;
16998;SDS011;10211;49.476;11.010;2023-07-08T11:51:17;4.03;;;3.08;;
16998;SDS011;10211;49.476;11.010;2023-07-08T11:53:49;4.10;;;3.67;;
16998;SDS011;10211;49.476;11.010;2023-07-08T11:56:24;3.83;;;3.53;;
16998;SDS011;10211;49.476;11.010;2023-07-08T11:58:57;3.53;;;3.33;;
16998;SDS011;10211;49.476;11.010;2023-07-08T12:01:32;3.60;;;3.30;;
16998;SDS011;10211;49.476;11.010;2023-07-08T12:04:15;3.72;;;3.42;;
16998;SDS011;10211;49.476;11.010;2023-07-08T12:06:52;3.58;;;3.25;;
16998;SDS011;10211;49.476;11.010;2023-07-08T12:09:28;4.45;;;3.60;;
16998;SDS011;10211;49.476;11.010;2023-07-08T12:12:02;3.63;;;3.17;;
16998;SDS011;10211;49.476;11.010;2023-07-08T12:14:33;3.60;;;3.30;;
16998;SDS011;10211;49.476;11.010;2023-07-08T12:16:59;3.17;;;2.95;;
16998;SDS011;10211;49.476;11.010;2023-07-08T12:19:27;4.32;;;3.67;;
16998;SDS011;10211;49.476;11.010;2023-07-08T12:21:57;3.42;;;3.13;;
16998;SDS011;10211;49.476;11.010;2023-07-08T12:24:23;3.53;;;3.10;;
16998;SDS011;10211;49.476;11.010;2023-07-08T12:26:52;4.07;;;3.72;;
16998;SDS011;10211;49.476;11.010;2023-07-08T12:29:19;3.38;;;3.08;;
16998;SDS011;10211;49.476;11.010;2023-07-08T12:31:47;4.10;;;3.60;;
16998;SDS011;10211;49.476;11.010;2023-07-08T12:34:15;3.40;;;3.10;;
16998;SDS011;10211;49.476;11.010;2023-07-08T12:36:44;3.80;;;3.50;;
16998;SDS011;10211;49.476;11.010;2023-07-08T12:39:14;4.00;;;3.70;;
16998;SDS011;10211;49.476;11.010;2023-07-08T12:41:42;3.53;;;3.22;;
16998;SDS011;10211;49.476;11.010;2023-07-08T12:44:14;3.88;;;3.47;;
16998;SDS011;10211;49.476;11.010;2023-07-08T12:46:44;3.30;;;3.00;;
16998;SDS011;10211;49.476;11.010;2023-07-08T12:49:14;3.80;;;3.50;;
16998;SDS011;10211;49.476;11.010;2023-07-08T12:51:44;3.40;;;3.10;;
16998;SDS011;10211;49.476;11.010;2023-07-08T12:54:12;4.30;;;3.28;;
16998;SDS011;10211;49.476;11.010;2023-07-08T12:56:39;3.80;;;3.50;;
16998;SDS011;10211;49.476;11.010;2023-07-08T12:59:10;3.35;;;3.03;;
16998;SDS011;10211;49.476;11.010;2023-07-08T13:01:40;4.03;;;3.70;;
16998;SDS011;10211;49.476;11.010;2023-07-08T13:04:09;3.88;;;3.58;;
16998;SDS011;10211;49.476;11.010;2023-07-08T13:06:39;3.88;;;3.30;;
16998;SDS011;10211;49.476;11.010;2023-07-08T13:09:11;3.80;;;3.50;;
16998;SDS011;10211;49.476;11.010;2023-07-08T13:11:47;4.10;;;3.72;;
16998;SDS011;10211;49.476;11.010;2023-07-08T13:14:14;5.20;;;3.13;;
16998;SDS011;10211;49.476;11.010;2023-07-08T13:16:42;3.33;;;3.00;;
16998;SDS011;10211;49.476;11.010;2023-07-08T13:19:10;4.55;;;3.25;;
16998;SDS011;10211;49.476;11.010;2023-07-08T13:21:39;3.85;;;3.28;;
16998;SDS011;10211;49.476;11.010;2023-07-08T13:24:07;3.50;;;3.20;;
16998;SDS011;10211;49.476;11.010;2023-07-08T13:26:35;3.97;;;3.40;;
16998;SDS011;10211;49.476;11.010;2023-07-08T13:29:04;5.15;;;3.33;;
16998;SDS011;10211;49.476;11.010;2023-07-08T13:31:37;4.55;;;3.70;;
16998;SDS011;10211;49.476;11.010;2023-07-08T13:34:06;3.85;;;3.40;;
16998;SDS011;10211;49.476;11.010;2023-07-08T13:36:35;4.38;;;3.60;;
16998;SDS011;10211;49.476;11.010;2023-07-08T13:39:06;3.33;;;3.03;;
16998;SDS011;10211;49.476;11.010;2023-07-08T13:41:34;5.60;;;3.33;;
16998;SDS011;10211;49.476;11.010;2023-07-08T13:44:04;4.85;;;3.47;;
16998;SDS011;10211;49.476;11.010;2023-07-08T13:46:34;4.78;;;3.35;;
16998;SDS011;10211;49.476;11.010;2023-07-08T13:49:07;5.20;;;3.05;;
16998;SDS011;10211;49.476;11.010;2023-07-08T13:51:38;5.05;;;3.40;;
16998;SDS011;10211;49.476;11.010;2023-07-08T13:54:14;4.60;;;3.50;;
16998;SDS011;10211;49.476;11.010;2023-07-08T13:56:46;6.13;;;3.13;;
16998;SDS011;10211;49.476;11.010;2023-07-08T13:59:15;4.03;;;3.63;;
16998;SDS011;10211;49.476;11.010;2023-07-08T14:01:45;5.22;;;3.72;;
16998;SDS011;10211;49.476;11.010;2023-07-08T14:04:12;6.30;;;3.85;;
16998;SDS011;10211;49.476;11.010;2023-07-08T14:06:41;5.15;;;3.85;;
16998;SDS011;10211;49.476;11.010;2023-07-08T14:09:11;3.35;;;3.05;;
16998;SDS011;10211;49.476;11.010;2023-07-08T14:11:41;4.00;;;3.58;;
16998;SDS011;10211;49.476;11.010;2023-07-08T14:14:08;4.45;;;3.20;;
16998;SDS011;10211;49.476;11.010;2023-07-08T14:16:36;4.95;;;3.60;;
16998;SDS011;10211;49.476;11.010;2023-07-08T14:19:05;4.10;;;3.45;;
16998;SDS011;10211;49.476;11.010;2023-07-08T14:21:36;4.40;;;4.00;;
16998;SDS011;10211;49.476;11.010;2023-07-08T14:24:08;3.90;;;3.47;;
16998;SDS011;10211;49.476;11.010;2023-07-08T14:26:38;3.58;;;3.28;;
16998;SDS011;10211;49.476;11.010;2023-07-08T14:29:07;4.70;;;3.40;;
16998;SDS011;10211;49.476;11.010;2023-07-08T14:31:33;4.68;;;3.53;;
16998;SDS011;10211;49.476;11.010;2023-07-08T14:34:03;3.55;;;3.25;;
16998;SDS011;10211;49.476;11.010;2023-07-08T14:36:32;3.58;;;3.28;;
16998;SDS011;10211;49.476;11.010;2023-07-08T14:38:59;3.80;;;3.40;;
16998;SDS011;10211;49.476;11.010;2023-07-08T14:41:26;4.03;;;3.60;;
16998;SDS011;10211;49.476;11.010;2023-07-08T14:43:55;3.83;;;3.40;;